Duncan, AZ

07:21 AM MST on Enero 26, 2015 (GMT -0700)
APRSWXNET Duncan AZ US | Change Station
CLOSE
Current Station
Personal Weather Stations
Location: Duncan, AZ
Elevation: 3815 ft
Nearby Weather Stations

Elev 3815 ft 32.75 °N, 109.08 °W | Updated 32 minutes ago

Clear
Clear
33 °F
Feels Like 33 °F
N
0
Hangin Variable Hangin from East
Gusts 2.0 mph

Ngayon
High -- | Low -- °F
--% Chance of Precip.
Yesterday
High -- | Low -- °F
Precip. -- sa
7:14 AM 5:43 PM
Waxing Crescent, 43% visible
Pwersa 30.20 sa
Paningin 10.0 milya
Mga Ulap Clear
Windchill 33 °F
Hamog 25 °F
Humidito 71%
Rainfall 0.00 sa
Snow Depth Not available.
UV 0 out of 12
Pollen 4.00 out of 12
Air Quality Not available.
Flu Activity Not available.
METAR KSAD 261351Z AUTO 12012KT 10SM CLR 08/M05 A3024 RMK AO2 SLP226 T00831050

More Conditions Fewer Conditions

Pwersa 30.20 sa
Paningin 10.0 milya
Mga Ulap Clear
Windchill 33 °F
Hamog 25 °F
Humidito 71%
Rainfall 0.00 sa
Snow Depth Not available.
UV 0 out of 12
Pollen 4.00 out of 12
Air Quality Not available.
Flu Activity Not available.
METAR KSAD 261351Z AUTO 12012KT 10SM CLR 08/M05 A3024 RMK AO2 SLP226 T00831050

More Conditions Fewer Conditions

10-Day Weather Forecast

Almanac

Astronomiya

Jan. 26, 2015 Rise Set
Actual Time
Civil Twilight
Nautical Twilight
Astronomical Twilight
Buwan
Length Of Visible Light
Haba ng Araw
Tomorrow will be .
, % of the Moon is Illuminated

Today's Extremes

State Highs State Lows

Community

WunderPhotos

Upload Photos

1,790,219 photos uploaded!

WunderBlogs® & News

Nearby

Air Quality

  Air Quality AQ Index Pollutant
Not available.

Snow Depth

Station Depth Elevation

Earthquake Activity

Siyudad Distance Mag. Time & Date
Minimum magnitude displayed is 2.5.

Coastal Water Temperatures

lugar Temparatura

Nearby Weather Stations